sensor_id;sensor_type;location;lat;lon;timestamp;pressure;altitude;pressure_sealevel;temperature;humidity
30081;BME280;16902;50.816;12.828;2022-12-26T00:01:24;97416.22;;;9.88;100.00
30081;BME280;16902;50.816;12.828;2022-12-26T00:06:28;97414.94;;;9.98;100.00
30081;BME280;16902;50.816;12.828;2022-12-26T00:11:31;97413.97;;;10.21;100.00
30081;BME280;16902;50.816;12.828;2022-12-26T00:16:34;97421.97;;;10.41;100.00
30081;BME280;16902;50.816;12.828;2022-12-26T00:21:36;97438.88;;;10.51;100.00
30081;BME280;16902;50.816;12.828;2022-12-26T00:26:38;97440.19;;;10.62;100.00
30081;BME280;16902;50.816;12.828;2022-12-26T00:31:40;97438.63;;;10.68;100.00
30081;BME280;16902;50.816;12.828;2022-12-26T00:36:42;97435.66;;;10.71;100.00
30081;BME280;16902;50.816;12.828;2022-12-26T00:41:43;97441.69;;;10.78;100.00
30081;BME280;16902;50.816;12.828;2022-12-26T00:46:45;97430.94;;;10.88;100.00
30081;BME280;16902;50.816;12.828;2022-12-26T00:51:47;97441.34;;;10.81;100.00
30081;BME280;16902;50.816;12.828;2022-12-26T00:56:49;97444.63;;;10.68;100.00
30081;BME280;16902;50.816;12.828;2022-12-26T01:01:51;97436.56;;;10.63;100.00
30081;BME280;16902;50.816;12.828;2022-12-26T01:06:53;97452.72;;;10.73;100.00
30081;BME280;16902;50.816;12.828;2022-12-26T01:11:55;97447.50;;;10.73;100.00
30081;BME280;16902;50.816;12.828;2022-12-26T01:16:56;97427.22;;;10.69;100.00
30081;BME280;16902;50.816;12.828;2022-12-26T01:21:59;97424.00;;;10.67;100.00
30081;BME280;16902;50.816;12.828;2022-12-26T01:27:01;97447.06;;;10.70;100.00
30081;BME280;16902;50.816;12.828;2022-12-26T01:32:03;97445.00;;;10.65;100.00
30081;BME280;16902;50.816;12.828;2022-12-26T01:37:05;97450.03;;;10.67;100.00
30081;BME280;16902;50.816;12.828;2022-12-26T01:42:12;97437.41;;;10.64;100.00
30081;BME280;16902;50.816;12.828;2022-12-26T01:47:14;97426.47;;;10.53;100.00
30081;BME280;16902;50.816;12.828;2022-12-26T01:52:34;97426.78;;;10.44;100.00
30081;BME280;16902;50.816;12.828;2022-12-26T01:57:42;97428.31;;;10.32;100.00
30081;BME280;16902;50.816;12.828;2022-12-26T02:02:45;97441.66;;;10.28;100.00
30081;BME280;16902;50.816;12.828;2022-12-26T02:08:15;97439.88;;;10.29;100.00
30081;BME280;16902;50.816;12.828;2022-12-26T02:13:18;97424.25;;;10.29;100.00
30081;BME280;16902;50.816;12.828;2022-12-26T02:18:20;97444.09;;;10.30;100.00
30081;BME280;16902;50.816;12.828;2022-12-26T02:34:15;97432.56;;;10.39;100.00
30081;BME280;16902;50.816;12.828;2022-12-26T02:56:35;97420.34;;;10.61;100.00
30081;BME280;16902;50.816;12.828;2022-12-26T03:01:56;97424.13;;;10.59;100.00
30081;BME280;16902;50.816;12.828;2022-12-26T03:07:22;97419.53;;;10.61;100.00
30081;BME280;16902;50.816;12.828;2022-12-26T03:12:51;97412.31;;;10.56;100.00
30081;BME280;16902;50.816;12.828;2022-12-26T03:18:13;97407.34;;;10.61;100.00
30081;BME280;16902;50.816;12.828;2022-12-26T03:23:17;97422.81;;;10.69;100.00
30081;BME280;16902;50.816;12.828;2022-12-26T03:28:21;97418.03;;;10.73;100.00
30081;BME280;16902;50.816;12.828;2022-12-26T03:33:27;97422.38;;;10.66;100.00
30081;BME280;16902;50.816;12.828;2022-12-26T03:49:44;97445.53;;;10.54;100.00
30081;BME280;16902;50.816;12.828;2022-12-26T03:55:21;97449.53;;;10.57;100.00
30081;BME280;16902;50.816;12.828;2022-12-26T04:00:47;97465.22;;;10.63;100.00
30081;BME280;16902;50.816;12.828;2022-12-26T04:06:17;97474.78;;;10.56;100.00
30081;BME280;16902;50.816;12.828;2022-12-26T04:11:42;97482.81;;;10.61;100.00
30081;BME280;16902;50.816;12.828;2022-12-26T04:17:16;97493.34;;;10.53;100.00
30081;BME280;16902;50.816;12.828;2022-12-26T04:22:52;97496.91;;;10.45;100.00
30081;BME280;16902;50.816;12.828;2022-12-26T04:28:14;97494.09;;;10.47;100.00
30081;BME280;16902;50.816;12.828;2022-12-26T04:33:42;97490.94;;;10.51;100.00
30081;BME280;16902;50.816;12.828;2022-12-26T04:39:08;97486.97;;;10.55;100.00
30081;BME280;16902;50.816;12.828;2022-12-26T04:44:31;97482.78;;;10.54;100.00
30081;BME280;16902;50.816;12.828;2022-12-26T04:49:41;97461.31;;;10.52;100.00
30081;BME280;16902;50.816;12.828;2022-12-26T04:55:02;97470.78;;;10.39;100.00
30081;BME280;16902;50.816;12.828;2022-12-26T05:00:05;97477.19;;;10.36;100.00
30081;BME280;16902;50.816;12.828;2022-12-26T05:05:08;97459.66;;;10.45;100.00
30081;BME280;16902;50.816;12.828;2022-12-26T05:10:29;97441.84;;;10.48;100.00
30081;BME280;16902;50.816;12.828;2022-12-26T05:15:31;97449.66;;;10.48;100.00
30081;BME280;16902;50.816;12.828;2022-12-26T05:20:52;97467.31;;;10.53;100.00
30081;BME280;16902;50.816;12.828;2022-12-26T05:26:18;97471.56;;;10.54;100.00
30081;BME280;16902;50.816;12.828;2022-12-26T05:31:40;97462.56;;;10.57;100.00
30081;BME280;16902;50.816;12.828;2022-12-26T05:36:46;97457.97;;;10.59;100.00
30081;BME280;16902;50.816;12.828;2022-12-26T05:41:49;97449.22;;;10.66;100.00
30081;BME280;16902;50.816;12.828;2022-12-26T05:46:50;97451.22;;;10.64;100.00
30081;BME280;16902;50.816;12.828;2022-12-26T05:51:52;97438.00;;;10.66;100.00
30081;BME280;16902;50.816;12.828;2022-12-26T05:56:54;97432.25;;;10.70;100.00
30081;BME280;16902;50.816;12.828;2022-12-26T06:01:56;97414.94;;;10.63;100.00
30081;BME280;16902;50.816;12.828;2022-12-26T06:06:59;97410.59;;;10.70;100.00
30081;BME280;16902;50.816;12.828;2022-12-26T06:12:01;97397.69;;;10.83;100.00
30081;BME280;16902;50.816;12.828;2022-12-26T06:17:03;97410.72;;;10.83;100.00
30081;BME280;16902;50.816;12.828;2022-12-26T06:22:05;97424.44;;;10.70;100.00
30081;BME280;16902;50.816;12.828;2022-12-26T06:27:07;97448.44;;;10.66;100.00
30081;BME280;16902;50.816;12.828;2022-12-26T06:32:08;97442.97;;;10.61;100.00
30081;BME280;16902;50.816;12.828;2022-12-26T06:37:10;97461.16;;;10.54;100.00
30081;BME280;16902;50.816;12.828;2022-12-26T06:42:12;97468.81;;;10.41;100.00
30081;BME280;16902;50.816;12.828;2022-12-26T06:47:14;97467.38;;;10.38;100.00
30081;BME280;16902;50.816;12.828;2022-12-26T06:52:16;97469.75;;;10.33;100.00
30081;BME280;16902;50.816;12.828;2022-12-26T06:57:17;97483.94;;;10.31;100.00
30081;BME280;16902;50.816;12.828;2022-12-26T07:02:19;97470.84;;;10.24;100.00
30081;BME280;16902;50.816;12.828;2022-12-26T07:07:21;97474.59;;;10.21;100.00
30081;BME280;16902;50.816;12.828;2022-12-26T07:12:23;97478.47;;;10.25;100.00
30081;BME280;16902;50.816;12.828;2022-12-26T07:17:25;97478.34;;;10.34;100.00
30081;BME280;16902;50.816;12.828;2022-12-26T07:22:27;97474.16;;;10.54;100.00
30081;BME280;16902;50.816;12.828;2022-12-26T07:27:29;97467.53;;;10.51;100.00
30081;BME280;16902;50.816;12.828;2022-12-26T07:32:31;97461.72;;;10.49;100.00
30081;BME280;16902;50.816;12.828;2022-12-26T07:37:33;97489.59;;;10.55;100.00
30081;BME280;16902;50.816;12.828;2022-12-26T07:42:34;97518.81;;;10.58;100.00
30081;BME280;16902;50.816;12.828;2022-12-26T07:47:37;97522.56;;;10.70;100.00
30081;BME280;16902;50.816;12.828;2022-12-26T07:52:38;97508.66;;;10.84;100.00
30081;BME280;16902;50.816;12.828;2022-12-26T07:57:40;97493.91;;;10.91;100.00
30081;BME280;16902;50.816;12.828;2022-12-26T08:02:50;97511.00;;;11.00;100.00
30081;BME280;16902;50.816;12.828;2022-12-26T08:07:53;97527.81;;;10.98;100.00
30081;BME280;16902;50.816;12.828;2022-12-26T08:12:56;97531.59;;;10.95;100.00
30081;BME280;16902;50.816;12.828;2022-12-26T08:17:58;97543.13;;;10.86;100.00
30081;BME280;16902;50.816;12.828;2022-12-26T08:23:01;97528.88;;;10.82;100.00
30081;BME280;16902;50.816;12.828;2022-12-26T08:28:03;97535.97;;;10.88;100.00
30081;BME280;16902;50.816;12.828;2022-12-26T08:33:05;97533.66;;;11.00;100.00
30081;BME280;16902;50.816;12.828;2022-12-26T08:38:06;97529.88;;;11.02;100.00
30081;BME280;16902;50.816;12.828;2022-12-26T08:43:08;97512.28;;;11.11;100.00
30081;BME280;16902;50.816;12.828;2022-12-26T08:48:31;97521.78;;;11.19;100.00
30081;BME280;16902;50.816;12.828;2022-12-26T08:53:34;97546.22;;;11.18;100.00
30081;BME280;16902;50.816;12.828;2022-12-26T08:58:36;97537.22;;;11.20;100.00
30081;BME280;16902;50.816;12.828;2022-12-26T09:03:39;97542.84;;;11.24;100.00
30081;BME280;16902;50.816;12.828;2022-12-26T09:08:41;97536.84;;;11.23;100.00
30081;BME280;16902;50.816;12.828;2022-12-26T09:13:44;97536.75;;;11.38;100.00
30081;BME280;16902;50.816;12.828;2022-12-26T09:18:47;97540.25;;;11.52;100.00
30081;BME280;16902;50.816;12.828;2022-12-26T09:23:49;97552.66;;;11.50;100.00
30081;BME280;16902;50.816;12.828;2022-12-26T09:28:56;97548.81;;;11.46;100.00
30081;BME280;16902;50.816;12.828;2022-12-26T09:34:01;97537.34;;;11.40;100.00
30081;BME280;16902;50.816;12.828;2022-12-26T09:39:04;97533.09;;;11.32;100.00
30081;BME280;16902;50.816;12.828;2022-12-26T09:49:57;97533.34;;;11.38;100.00
30081;BME280;16902;50.816;12.828;2022-12-26T09:55:39;97544.91;;;11.28;100.00
30081;BME280;16902;50.816;12.828;2022-12-26T10:00:44;97523.91;;;11.09;100.00
30081;BME280;16902;50.816;12.828;2022-12-26T10:06:13;97525.75;;;11.15;100.00
30081;BME280;16902;50.816;12.828;2022-12-26T10:16:55;97513.56;;;10.94;100.00
30081;BME280;16902;50.816;12.828;2022-12-26T10:27:17;97518.31;;;10.47;100.00
30081;BME280;16902;50.816;12.828;2022-12-26T10:37:33;97517.72;;;10.45;100.00
30081;BME280;16902;50.816;12.828;2022-12-26T10:42:41;97531.22;;;10.55;100.00
30081;BME280;16902;50.816;12.828;2022-12-26T10:47:48;97522.97;;;10.52;100.00
30081;BME280;16902;50.816;12.828;2022-12-26T10:52:51;97527.88;;;10.62;100.00
30081;BME280;16902;50.816;12.828;2022-12-26T10:57:53;97529.97;;;10.73;100.00
30081;BME280;16902;50.816;12.828;2022-12-26T11:13:24;97540.00;;;11.19;100.00
30081;BME280;16902;50.816;12.828;2022-12-26T11:23:34;97526.91;;;10.84;100.00
30081;BME280;16902;50.816;12.828;2022-12-26T11:28:36;97525.03;;;10.78;100.00
30081;BME280;16902;50.816;12.828;2022-12-26T11:33:42;97526.84;;;10.56;100.00
30081;BME280;16902;50.816;12.828;2022-12-26T11:38:55;97520.06;;;10.40;100.00
30081;BME280;16902;50.816;12.828;2022-12-26T11:54:34;97520.19;;;10.53;100.00
30081;BME280;16902;50.816;12.828;2022-12-26T11:59:36;97533.03;;;10.55;100.00
30081;BME280;16902;50.816;12.828;2022-12-26T12:04:38;97540.03;;;10.54;100.00
30081;BME280;16902;50.816;12.828;2022-12-26T12:36:38;97523.09;;;9.93;100.00
30081;BME280;16902;50.816;12.828;2022-12-26T12:42:17;97534.19;;;9.57;100.00
30081;BME280;16902;50.816;12.828;2022-12-26T12:47:37;97573.25;;;9.34;100.00
30081;BME280;16902;50.816;12.828;2022-12-26T12:58:33;97551.66;;;8.96;100.00
30081;BME280;16902;50.816;12.828;2022-12-26T13:09:01;97564.75;;;9.02;100.00
30081;BME280;16902;50.816;12.828;2022-12-26T13:14:22;97571.97;;;8.92;100.00
30081;BME280;16902;50.816;12.828;2022-12-26T13:19:37;97583.66;;;8.88;100.00
30081;BME280;16902;50.816;12.828;2022-12-26T13:24:50;97571.72;;;8.79;100.00
30081;BME280;16902;50.816;12.828;2022-12-26T13:29:52;97569.88;;;8.88;100.00
30081;BME280;16902;50.816;12.828;2022-12-26T13:34:57;97577.06;;;8.86;100.00
30081;BME280;16902;50.816;12.828;2022-12-26T13:40:00;97561.81;;;8.83;100.00
30081;BME280;16902;50.816;12.828;2022-12-26T13:55:58;97556.84;;;8.73;100.00
30081;BME280;16902;50.816;12.828;2022-12-26T14:27:48;97571.31;;;8.36;100.00
30081;BME280;16902;50.816;12.828;2022-12-26T14:38:37;97584.94;;;8.38;100.00
30081;BME280;16902;50.816;12.828;2022-12-26T14:43:40;97580.88;;;8.44;100.00
30081;BME280;16902;50.816;12.828;2022-12-26T14:48:47;97587.66;;;8.45;100.00
30081;BME280;16902;50.816;12.828;2022-12-26T14:54:16;97573.78;;;8.38;100.00
30081;BME280;16902;50.816;12.828;2022-12-26T15:05:04;97586.88;;;8.36;100.00
30081;BME280;16902;50.816;12.828;2022-12-26T15:57:47;97569.69;;;8.35;100.00
30081;BME280;16902;50.816;12.828;2022-12-26T16:08:53;97583.78;;;8.41;100.00
30081;BME280;16902;50.816;12.828;2022-12-26T16:14:00;97577.47;;;8.43;100.00
30081;BME280;16902;50.816;12.828;2022-12-26T16:19:14;97579.72;;;8.46;100.00
30081;BME280;16902;50.816;12.828;2022-12-26T16:24:17;97586.22;;;8.42;100.00
30081;BME280;16902;50.816;12.828;2022-12-26T16:29:20;97582.63;;;8.52;100.00
30081;BME280;16902;50.816;12.828;2022-12-26T16:34:22;97591.84;;;8.54;100.00
30081;BME280;16902;50.816;12.828;2022-12-26T16:39:33;97594.72;;;8.59;100.00
30081;BME280;16902;50.816;12.828;2022-12-26T16:44:38;97594.03;;;8.65;100.00
30081;BME280;16902;50.816;12.828;2022-12-26T16:49:40;97595.31;;;8.69;100.00
30081;BME280;16902;50.816;12.828;2022-12-26T16:54:43;97595.16;;;8.71;100.00
30081;BME280;16902;50.816;12.828;2022-12-26T16:59:56;97592.66;;;8.78;100.00
30081;BME280;16902;50.816;12.828;2022-12-26T17:05:06;97592.16;;;8.82;100.00
30081;BME280;16902;50.816;12.828;2022-12-26T17:10:22;97579.41;;;8.72;100.00
30081;BME280;16902;50.816;12.828;2022-12-26T17:15:27;97599.28;;;8.57;100.00
30081;BME280;16902;50.816;12.828;2022-12-26T17:20:35;97584.41;;;8.51;100.00
30081;BME280;16902;50.816;12.828;2022-12-26T17:25:37;97600.81;;;8.35;100.00
30081;BME280;16902;50.816;12.828;2022-12-26T17:30:49;97589.06;;;8.16;100.00
30081;BME280;16902;50.816;12.828;2022-12-26T17:36:01;97593.00;;;8.04;100.00
30081;BME280;16902;50.816;12.828;2022-12-26T17:41:23;97600.78;;;8.04;100.00
30081;BME280;16902;50.816;12.828;2022-12-26T17:46:25;97597.41;;;7.87;100.00
30081;BME280;16902;50.816;12.828;2022-12-26T17:51:27;97572.19;;;7.73;100.00
30081;BME280;16902;50.816;12.828;2022-12-26T17:56:30;97568.03;;;7.56;100.00
30081;BME280;16902;50.816;12.828;2022-12-26T18:01:32;97596.72;;;7.46;100.00
30081;BME280;16902;50.816;12.828;2022-12-26T18:06:34;97601.41;;;7.42;100.00
30081;BME280;16902;50.816;12.828;2022-12-26T18:11:35;97607.56;;;7.41;100.00
30081;BME280;16902;50.816;12.828;2022-12-26T18:16:37;97611.94;;;7.41;100.00
30081;BME280;16902;50.816;12.828;2022-12-26T18:21:39;97592.34;;;7.38;100.00
30081;BME280;16902;50.816;12.828;2022-12-26T18:26:40;97571.16;;;7.27;100.00
30081;BME280;16902;50.816;12.828;2022-12-26T18:31:42;97586.84;;;7.25;100.00
30081;BME280;16902;50.816;12.828;2022-12-26T18:36:45;97575.50;;;7.10;100.00
30081;BME280;16902;50.816;12.828;2022-12-26T18:41:48;97570.81;;;7.05;100.00
30081;BME280;16902;50.816;12.828;2022-12-26T18:46:49;97589.75;;;6.98;100.00
30081;BME280;16902;50.816;12.828;2022-12-26T18:51:52;97584.09;;;6.94;100.00
30081;BME280;16902;50.816;12.828;2022-12-26T18:56:53;97589.56;;;6.91;100.00
30081;BME280;16902;50.816;12.828;2022-12-26T19:01:55;97588.78;;;6.90;100.00
30081;BME280;16902;50.816;12.828;2022-12-26T19:06:57;97592.66;;;6.94;100.00
30081;BME280;16902;50.816;12.828;2022-12-26T19:11:58;97580.69;;;6.93;100.00
30081;BME280;16902;50.816;12.828;2022-12-26T19:17:00;97584.25;;;6.92;100.00
30081;BME280;16902;50.816;12.828;2022-12-26T19:22:02;97603.69;;;6.97;100.00
30081;BME280;16902;50.816;12.828;2022-12-26T19:27:03;97605.63;;;7.03;100.00
30081;BME280;16902;50.816;12.828;2022-12-26T19:32:05;97618.72;;;7.01;100.00
30081;BME280;16902;50.816;12.828;2022-12-26T19:37:07;97626.94;;;6.88;100.00
30081;BME280;16902;50.816;12.828;2022-12-26T19:42:08;97667.53;;;6.80;100.00
30081;BME280;16902;50.816;12.828;2022-12-26T19:47:10;97683.00;;;6.72;100.00
30081;BME280;16902;50.816;12.828;2022-12-26T19:52:13;97705.81;;;6.68;100.00
30081;BME280;16902;50.816;12.828;2022-12-26T19:57:15;97732.16;;;6.63;100.00
30081;BME280;16902;50.816;12.828;2022-12-26T20:02:17;97752.81;;;6.55;100.00
30081;BME280;16902;50.816;12.828;2022-12-26T20:07:19;97746.94;;;6.45;100.00
30081;BME280;16902;50.816;12.828;2022-12-26T20:12:20;97700.97;;;6.31;100.00
30081;BME280;16902;50.816;12.828;2022-12-26T20:17:22;97714.81;;;6.22;100.00
30081;BME280;16902;50.816;12.828;2022-12-26T20:22:24;97707.81;;;6.14;100.00
30081;BME280;16902;50.816;12.828;2022-12-26T20:27:25;97687.44;;;6.11;100.00
30081;BME280;16902;50.816;12.828;2022-12-26T20:32:27;97649.91;;;5.99;100.00
30081;BME280;16902;50.816;12.828;2022-12-26T20:37:29;97674.03;;;6.07;100.00
30081;BME280;16902;50.816;12.828;2022-12-26T20:42:32;97668.19;;;6.05;100.00
30081;BME280;16902;50.816;12.828;2022-12-26T20:47:34;97703.72;;;6.03;100.00
30081;BME280;16902;50.816;12.828;2022-12-26T20:52:35;97709.94;;;5.92;100.00
30081;BME280;16902;50.816;12.828;2022-12-26T20:57:37;97729.66;;;5.93;100.00
30081;BME280;16902;50.816;12.828;2022-12-26T21:02:38;97737.75;;;5.99;100.00
30081;BME280;16902;50.816;12.828;2022-12-26T21:07:40;97745.81;;;5.96;100.00
30081;BME280;16902;50.816;12.828;2022-12-26T21:12:42;97744.34;;;5.93;100.00
30081;BME280;16902;50.816;12.828;2022-12-26T21:17:43;97752.38;;;5.90;100.00
30081;BME280;16902;50.816;12.828;2022-12-26T21:22:45;97749.94;;;5.88;100.00
30081;BME280;16902;50.816;12.828;2022-12-26T21:27:47;97767.38;;;5.86;100.00
30081;BME280;16902;50.816;12.828;2022-12-26T21:32:50;97773.63;;;5.84;100.00
30081;BME280;16902;50.816;12.828;2022-12-26T21:37:52;97789.22;;;5.74;100.00
30081;BME280;16902;50.816;12.828;2022-12-26T21:42:53;97781.91;;;5.70;100.00
30081;BME280;16902;50.816;12.828;2022-12-26T21:47:55;97801.38;;;5.64;100.00
30081;BME280;16902;50.816;12.828;2022-12-26T21:52:57;97822.38;;;5.61;100.00
30081;BME280;16902;50.816;12.828;2022-12-26T21:57:59;97872.28;;;5.24;100.00
30081;BME280;16902;50.816;12.828;2022-12-26T22:03:02;97882.41;;;4.71;100.00
30081;BME280;16902;50.816;12.828;2022-12-26T22:08:22;97883.66;;;4.47;100.00
30081;BME280;16902;50.816;12.828;2022-12-26T22:13:24;97881.66;;;4.31;100.00
30081;BME280;16902;50.816;12.828;2022-12-26T22:23:31;97890.59;;;3.79;100.00
30081;BME280;16902;50.816;12.828;2022-12-26T22:28:33;97897.91;;;3.74;100.00
30081;BME280;16902;50.816;12.828;2022-12-26T22:33:35;97904.94;;;3.81;100.00
30081;BME280;16902;50.816;12.828;2022-12-26T22:38:37;97915.25;;;3.81;100.00
30081;BME280;16902;50.816;12.828;2022-12-26T22:43:38;97918.63;;;3.82;100.00
30081;BME280;16902;50.816;12.828;2022-12-26T22:48:41;97930.84;;;3.80;100.00
30081;BME280;16902;50.816;12.828;2022-12-26T22:53:42;97939.94;;;3.84;100.00
30081;BME280;16902;50.816;12.828;2022-12-26T22:58:44;97971.06;;;3.71;100.00
30081;BME280;16902;50.816;12.828;2022-12-26T23:03:46;97956.47;;;3.41;100.00
30081;BME280;16902;50.816;12.828;2022-12-26T23:08:49;97946.13;;;3.31;100.00
30081;BME280;16902;50.816;12.828;2022-12-26T23:13:52;97954.25;;;3.27;100.00
30081;BME280;16902;50.816;12.828;2022-12-26T23:19:00;97951.25;;;3.22;100.00
30081;BME280;16902;50.816;12.828;2022-12-26T23:24:24;97941.47;;;3.16;100.00
30081;BME280;16902;50.816;12.828;2022-12-26T23:29:26;97944.28;;;3.13;100.00
30081;BME280;16902;50.816;12.828;2022-12-26T23:34:46;97952.34;;;3.19;100.00
30081;BME280;16902;50.816;12.828;2022-12-26T23:39:48;97979.72;;;3.30;100.00
30081;BME280;16902;50.816;12.828;2022-12-26T23:44:49;97983.28;;;3.39;100.00
30081;BME280;16902;50.816;12.828;2022-12-26T23:49:51;97986.69;;;3.39;100.00
30081;BME280;16902;50.816;12.828;2022-12-26T23:54:53;97987.06;;;3.34;100.00
30081;BME280;16902;50.816;12.828;2022-12-26T23:59:54;98003.19;;;3.37;100.00
